sensor_id;sensor_type;location;lat;lon;timestamp;P1;durP1;ratioP1;P2;durP2;ratioP2
20379;SDS011;10349;48.666;8.948;2023-04-24T00:02:05;1.27;;;1.17;;
20379;SDS011;10349;48.666;8.948;2023-04-24T00:04:31;1.73;;;1.23;;
20379;SDS011;10349;48.666;8.948;2023-04-24T00:06:58;2.30;;;0.93;;
20379;SDS011;10349;48.666;8.948;2023-04-24T00:09:25;1.20;;;1.00;;
20379;SDS011;10349;48.666;8.948;2023-04-24T00:11:51;1.27;;;1.17;;
20379;SDS011;10349;48.666;8.948;2023-04-24T00:14:17;1.10;;;1.00;;
20379;SDS011;10349;48.666;8.948;2023-04-24T00:16:43;6.97;;;1.30;;
20379;SDS011;10349;48.666;8.948;2023-04-24T00:19:09;1.00;;;0.90;;
20379;SDS011;10349;48.666;8.948;2023-04-24T00:21:37;1.10;;;0.80;;
20379;SDS011;10349;48.666;8.948;2023-04-24T00:24:05;2.30;;;1.27;;
20379;SDS011;10349;48.666;8.948;2023-04-24T00:26:34;2.83;;;1.23;;
20379;SDS011;10349;48.666;8.948;2023-04-24T00:29:00;1.00;;;0.90;;
20379;SDS011;10349;48.666;8.948;2023-04-24T00:31:26;1.83;;;1.10;;
20379;SDS011;10349;48.666;8.948;2023-04-24T00:33:51;1.30;;;1.10;;
20379;SDS011;10349;48.666;8.948;2023-04-24T00:36:17;0.90;;;0.80;;
20379;SDS011;10349;48.666;8.948;2023-04-24T00:38:45;3.27;;;1.63;;
20379;SDS011;10349;48.666;8.948;2023-04-24T00:41:11;1.10;;;1.00;;
20379;SDS011;10349;48.666;8.948;2023-04-24T00:43:37;1.20;;;1.00;;
20379;SDS011;10349;48.666;8.948;2023-04-24T00:46:04;2.50;;;1.10;;
20379;SDS011;10349;48.666;8.948;2023-04-24T00:48:30;1.00;;;0.80;;
20379;SDS011;10349;48.666;8.948;2023-04-24T00:50:57;1.63;;;1.10;;
20379;SDS011;10349;48.666;8.948;2023-04-24T00:53:23;0.97;;;0.80;;
20379;SDS011;10349;48.666;8.948;2023-04-24T00:55:50;1.23;;;1.10;;
20379;SDS011;10349;48.666;8.948;2023-04-24T00:58:16;1.00;;;0.87;;
20379;SDS011;10349;48.666;8.948;2023-04-24T01:00:42;1.07;;;0.97;;
20379;SDS011;10349;48.666;8.948;2023-04-24T01:03:08;1.30;;;1.13;;
20379;SDS011;10349;48.666;8.948;2023-04-24T01:05:36;1.10;;;0.87;;
20379;SDS011;10349;48.666;8.948;2023-04-24T01:08:02;0.90;;;0.80;;
20379;SDS011;10349;48.666;8.948;2023-04-24T01:10:28;2.43;;;1.03;;
20379;SDS011;10349;48.666;8.948;2023-04-24T01:12:56;1.47;;;0.97;;
20379;SDS011;10349;48.666;8.948;2023-04-24T01:15:22;1.13;;;1.00;;
20379;SDS011;10349;48.666;8.948;2023-04-24T01:17:48;2.30;;;1.17;;
20379;SDS011;10349;48.666;8.948;2023-04-24T01:20:14;1.00;;;0.83;;
20379;SDS011;10349;48.666;8.948;2023-04-24T01:22:40;1.07;;;0.93;;
20379;SDS011;10349;48.666;8.948;2023-04-24T01:25:07;4.03;;;1.20;;
20379;SDS011;10349;48.666;8.948;2023-04-24T01:27:33;2.43;;;1.07;;
20379;SDS011;10349;48.666;8.948;2023-04-24T01:29:59;1.10;;;0.93;;
20379;SDS011;10349;48.666;8.948;2023-04-24T01:32:28;1.13;;;1.03;;
20379;SDS011;10349;48.666;8.948;2023-04-24T01:34:54;1.40;;;1.30;;
20379;SDS011;10349;48.666;8.948;2023-04-24T01:37:20;1.20;;;1.10;;
20379;SDS011;10349;48.666;8.948;2023-04-24T01:39:46;1.30;;;1.17;;
20379;SDS011;10349;48.666;8.948;2023-04-24T01:42:12;2.70;;;1.17;;
20379;SDS011;10349;48.666;8.948;2023-04-24T01:44:38;1.10;;;0.97;;
20379;SDS011;10349;48.666;8.948;2023-04-24T01:47:05;1.10;;;1.00;;
20379;SDS011;10349;48.666;8.948;2023-04-24T01:49:31;1.50;;;1.40;;
20379;SDS011;10349;48.666;8.948;2023-04-24T01:51:57;1.30;;;1.13;;
20379;SDS011;10349;48.666;8.948;2023-04-24T01:54:23;3.70;;;1.00;;
20379;SDS011;10349;48.666;8.948;2023-04-24T01:56:49;1.20;;;1.10;;
20379;SDS011;10349;48.666;8.948;2023-04-24T01:59:15;3.20;;;1.00;;
20379;SDS011;10349;48.666;8.948;2023-04-24T02:01:42;1.17;;;1.00;;
20379;SDS011;10349;48.666;8.948;2023-04-24T02:04:08;1.20;;;1.10;;
20379;SDS011;10349;48.666;8.948;2023-04-24T02:06:34;1.50;;;1.20;;
20379;SDS011;10349;48.666;8.948;2023-04-24T02:09:00;1.20;;;1.10;;
20379;SDS011;10349;48.666;8.948;2023-04-24T02:11:27;1.63;;;1.40;;
20379;SDS011;10349;48.666;8.948;2023-04-24T02:13:52;1.07;;;0.93;;
20379;SDS011;10349;48.666;8.948;2023-04-24T02:16:18;1.03;;;0.93;;
20379;SDS011;10349;48.666;8.948;2023-04-24T02:18:44;1.40;;;1.30;;
20379;SDS011;10349;48.666;8.948;2023-04-24T02:21:10;1.37;;;1.10;;
20379;SDS011;10349;48.666;8.948;2023-04-24T02:23:40;1.60;;;1.50;;
20379;SDS011;10349;48.666;8.948;2023-04-24T02:26:06;3.83;;;1.63;;
20379;SDS011;10349;48.666;8.948;2023-04-24T02:28:32;1.40;;;1.00;;
20379;SDS011;10349;48.666;8.948;2023-04-24T02:30:57;1.23;;;1.13;;
20379;SDS011;10349;48.666;8.948;2023-04-24T02:33:23;3.83;;;1.10;;
20379;SDS011;10349;48.666;8.948;2023-04-24T02:35:49;1.30;;;1.20;;
20379;SDS011;10349;48.666;8.948;2023-04-24T02:38:15;1.23;;;1.13;;
20379;SDS011;10349;48.666;8.948;2023-04-24T02:40:42;1.77;;;1.40;;
20379;SDS011;10349;48.666;8.948;2023-04-24T02:43:09;1.40;;;1.30;;
20379;SDS011;10349;48.666;8.948;2023-04-24T02:45:34;1.73;;;1.43;;
20379;SDS011;10349;48.666;8.948;2023-04-24T02:48:00;1.40;;;1.10;;
20379;SDS011;10349;48.666;8.948;2023-04-24T02:50:26;5.37;;;1.60;;
20379;SDS011;10349;48.666;8.948;2023-04-24T02:52:52;0.90;;;0.80;;
20379;SDS011;10349;48.666;8.948;2023-04-24T02:55:18;1.27;;;1.10;;
20379;SDS011;10349;48.666;8.948;2023-04-24T02:57:44;1.37;;;1.03;;
20379;SDS011;10349;48.666;8.948;2023-04-24T03:00:09;2.13;;;0.97;;
20379;SDS011;10349;48.666;8.948;2023-04-24T03:02:36;2.73;;;1.40;;
20379;SDS011;10349;48.666;8.948;2023-04-24T03:05:02;1.27;;;1.13;;
20379;SDS011;10349;48.666;8.948;2023-04-24T03:07:29;1.10;;;1.00;;
20379;SDS011;10349;48.666;8.948;2023-04-24T03:09:58;1.30;;;1.00;;
20379;SDS011;10349;48.666;8.948;2023-04-24T03:12:25;1.63;;;1.20;;
20379;SDS011;10349;48.666;8.948;2023-04-24T03:14:51;1.10;;;1.00;;
20379;SDS011;10349;48.666;8.948;2023-04-24T03:17:18;1.23;;;1.13;;
20379;SDS011;10349;48.666;8.948;2023-04-24T03:19:46;3.63;;;1.10;;
20379;SDS011;10349;48.666;8.948;2023-04-24T03:22:12;1.40;;;1.30;;
20379;SDS011;10349;48.666;8.948;2023-04-24T03:24:41;2.20;;;1.33;;
20379;SDS011;10349;48.666;8.948;2023-04-24T03:27:07;1.20;;;1.03;;
20379;SDS011;10349;48.666;8.948;2023-04-24T03:29:47;1.60;;;1.30;;
20379;SDS011;10349;48.666;8.948;2023-04-24T03:32:19;1.30;;;1.20;;
20379;SDS011;10349;48.666;8.948;2023-04-24T03:34:47;5.33;;;1.10;;
20379;SDS011;10349;48.666;8.948;2023-04-24T03:37:14;2.33;;;1.17;;
20379;SDS011;10349;48.666;8.948;2023-04-24T03:39:45;1.70;;;1.13;;
20379;SDS011;10349;48.666;8.948;2023-04-24T03:42:12;1.20;;;1.10;;
20379;SDS011;10349;48.666;8.948;2023-04-24T03:44:48;1.03;;;0.90;;
20379;SDS011;10349;48.666;8.948;2023-04-24T03:47:14;1.63;;;0.90;;
20379;SDS011;10349;48.666;8.948;2023-04-24T03:49:40;1.00;;;0.87;;
20379;SDS011;10349;48.666;8.948;2023-04-24T03:52:07;1.17;;;1.07;;
20379;SDS011;10349;48.666;8.948;2023-04-24T03:54:33;2.53;;;1.90;;
20379;SDS011;10349;48.666;8.948;2023-04-24T03:56:59;1.13;;;1.03;;
20379;SDS011;10349;48.666;8.948;2023-04-24T03:59:29;1.40;;;1.30;;
20379;SDS011;10349;48.666;8.948;2023-04-24T04:02:08;1.10;;;1.00;;
20379;SDS011;10349;48.666;8.948;2023-04-24T04:04:37;1.20;;;1.07;;
20379;SDS011;10349;48.666;8.948;2023-04-24T04:07:03;1.20;;;1.00;;
20379;SDS011;10349;48.666;8.948;2023-04-24T04:09:35;1.50;;;1.00;;
20379;SDS011;10349;48.666;8.948;2023-04-24T04:12:00;1.17;;;1.07;;
20379;SDS011;10349;48.666;8.948;2023-04-24T04:14:31;1.00;;;0.90;;
20379;SDS011;10349;48.666;8.948;2023-04-24T04:16:57;1.23;;;1.10;;
20379;SDS011;10349;48.666;8.948;2023-04-24T04:19:22;2.70;;;1.30;;
20379;SDS011;10349;48.666;8.948;2023-04-24T04:21:49;1.53;;;0.90;;
20379;SDS011;10349;48.666;8.948;2023-04-24T04:24:48;1.20;;;1.07;;
20379;SDS011;10349;48.666;8.948;2023-04-24T04:27:18;4.43;;;1.17;;
20379;SDS011;10349;48.666;8.948;2023-04-24T04:29:51;1.90;;;1.47;;
20379;SDS011;10349;48.666;8.948;2023-04-24T04:32:18;1.60;;;1.50;;
20379;SDS011;10349;48.666;8.948;2023-04-24T04:34:44;1.50;;;1.40;;
20379;SDS011;10349;48.666;8.948;2023-04-24T04:37:14;1.47;;;1.37;;
20379;SDS011;10349;48.666;8.948;2023-04-24T04:40:00;1.70;;;1.60;;
20379;SDS011;10349;48.666;8.948;2023-04-24T04:42:35;1.53;;;1.43;;
20379;SDS011;10349;48.666;8.948;2023-04-24T04:45:06;2.37;;;2.10;;
20379;SDS011;10349;48.666;8.948;2023-04-24T04:47:45;2.00;;;1.80;;
20379;SDS011;10349;48.666;8.948;2023-04-24T04:50:11;1.30;;;1.20;;
20379;SDS011;10349;48.666;8.948;2023-04-24T04:52:37;1.50;;;1.40;;
20379;SDS011;10349;48.666;8.948;2023-04-24T04:55:13;1.77;;;1.67;;
20379;SDS011;10349;48.666;8.948;2023-04-24T04:58:06;3.60;;;1.53;;
20379;SDS011;10349;48.666;8.948;2023-04-24T05:00:32;2.27;;;2.00;;
20379;SDS011;10349;48.666;8.948;2023-04-24T05:03:03;1.73;;;1.63;;
20379;SDS011;10349;48.666;8.948;2023-04-24T05:05:28;1.20;;;1.10;;
20379;SDS011;10349;48.666;8.948;2023-04-24T05:07:55;1.50;;;1.40;;
20379;SDS011;10349;48.666;8.948;2023-04-24T05:10:21;1.63;;;1.43;;
20379;SDS011;10349;48.666;8.948;2023-04-24T05:12:47;3.20;;;1.60;;
20379;SDS011;10349;48.666;8.948;2023-04-24T05:15:14;5.40;;;1.67;;
20379;SDS011;10349;48.666;8.948;2023-04-24T05:17:40;1.77;;;1.67;;
20379;SDS011;10349;48.666;8.948;2023-04-24T05:20:07;1.70;;;1.60;;
20379;SDS011;10349;48.666;8.948;2023-04-24T05:22:34;2.83;;;1.63;;
20379;SDS011;10349;48.666;8.948;2023-04-24T05:25:02;2.03;;;1.93;;
20379;SDS011;10349;48.666;8.948;2023-04-24T05:27:47;3.50;;;1.87;;
20379;SDS011;10349;48.666;8.948;2023-04-24T05:30:19;2.40;;;1.80;;
20379;SDS011;10349;48.666;8.948;2023-04-24T05:32:45;2.80;;;2.17;;
20379;SDS011;10349;48.666;8.948;2023-04-24T05:35:12;2.00;;;1.90;;
20379;SDS011;10349;48.666;8.948;2023-04-24T05:37:39;2.10;;;2.00;;
20379;SDS011;10349;48.666;8.948;2023-04-24T05:40:06;2.53;;;1.90;;
20379;SDS011;10349;48.666;8.948;2023-04-24T05:42:32;1.87;;;1.60;;
20379;SDS011;10349;48.666;8.948;2023-04-24T05:44:58;2.23;;;2.10;;
20379;SDS011;10349;48.666;8.948;2023-04-24T05:47:25;2.20;;;2.10;;
20379;SDS011;10349;48.666;8.948;2023-04-24T05:49:53;2.27;;;1.63;;
20379;SDS011;10349;48.666;8.948;2023-04-24T05:52:19;2.37;;;2.27;;
20379;SDS011;10349;48.666;8.948;2023-04-24T05:54:47;2.30;;;2.00;;
20379;SDS011;10349;48.666;8.948;2023-04-24T05:57:18;3.13;;;2.20;;
20379;SDS011;10349;48.666;8.948;2023-04-24T05:59:51;2.00;;;1.83;;
20379;SDS011;10349;48.666;8.948;2023-04-24T06:02:19;3.53;;;2.40;;
20379;SDS011;10349;48.666;8.948;2023-04-24T06:04:45;2.90;;;2.70;;
20379;SDS011;10349;48.666;8.948;2023-04-24T06:07:11;2.40;;;2.20;;
20379;SDS011;10349;48.666;8.948;2023-04-24T06:09:38;2.50;;;2.30;;
20379;SDS011;10349;48.666;8.948;2023-04-24T06:12:04;2.17;;;2.07;;
20379;SDS011;10349;48.666;8.948;2023-04-24T06:14:48;2.13;;;2.00;;
20379;SDS011;10349;48.666;8.948;2023-04-24T06:17:51;2.37;;;2.20;;
20379;SDS011;10349;48.666;8.948;2023-04-24T06:20:18;2.40;;;2.20;;
20379;SDS011;10349;48.666;8.948;2023-04-24T06:22:44;3.93;;;2.60;;
20379;SDS011;10349;48.666;8.948;2023-04-24T06:25:10;2.10;;;1.60;;
20379;SDS011;10349;48.666;8.948;2023-04-24T06:27:37;2.10;;;2.00;;
20379;SDS011;10349;48.666;8.948;2023-04-24T06:30:03;2.40;;;2.20;;
20379;SDS011;10349;48.666;8.948;2023-04-24T06:32:33;2.33;;;2.13;;
20379;SDS011;10349;48.666;8.948;2023-04-24T06:34:58;2.23;;;2.03;;
20379;SDS011;10349;48.666;8.948;2023-04-24T06:37:24;2.17;;;2.00;;
20379;SDS011;10349;48.666;8.948;2023-04-24T06:39:51;2.47;;;2.27;;
20379;SDS011;10349;48.666;8.948;2023-04-24T06:42:16;2.00;;;1.90;;
20379;SDS011;10349;48.666;8.948;2023-04-24T06:44:43;2.80;;;1.70;;
20379;SDS011;10349;48.666;8.948;2023-04-24T06:47:10;2.47;;;2.37;;
20379;SDS011;10349;48.666;8.948;2023-04-24T06:49:40;2.57;;;2.37;;
20379;SDS011;10349;48.666;8.948;2023-04-24T06:52:06;2.77;;;2.57;;
20379;SDS011;10349;48.666;8.948;2023-04-24T06:54:32;2.70;;;2.50;;
20379;SDS011;10349;48.666;8.948;2023-04-24T06:56:59;4.33;;;2.17;;
20379;SDS011;10349;48.666;8.948;2023-04-24T06:59:29;2.70;;;2.50;;
20379;SDS011;10349;48.666;8.948;2023-04-24T07:01:55;2.43;;;2.23;;
20379;SDS011;10349;48.666;8.948;2023-04-24T07:04:21;2.60;;;1.50;;
20379;SDS011;10349;48.666;8.948;2023-04-24T07:06:47;2.33;;;1.57;;
20379;SDS011;10349;48.666;8.948;2023-04-24T07:09:14;1.50;;;1.40;;
20379;SDS011;10349;48.666;8.948;2023-04-24T07:11:44;1.67;;;1.23;;
20379;SDS011;10349;48.666;8.948;2023-04-24T07:14:10;1.63;;;1.53;;
20379;SDS011;10349;48.666;8.948;2023-04-24T07:16:36;2.23;;;2.13;;
20379;SDS011;10349;48.666;8.948;2023-04-24T07:19:01;1.50;;;1.40;;
20379;SDS011;10349;48.666;8.948;2023-04-24T07:21:27;1.30;;;1.20;;
20379;SDS011;10349;48.666;8.948;2023-04-24T07:23:53;2.10;;;1.70;;
20379;SDS011;10349;48.666;8.948;2023-04-24T07:26:19;1.60;;;1.40;;
20379;SDS011;10349;48.666;8.948;2023-04-24T07:28:45;1.47;;;1.37;;
20379;SDS011;10349;48.666;8.948;2023-04-24T07:31:11;1.40;;;1.30;;
20379;SDS011;10349;48.666;8.948;2023-04-24T07:33:40;3.03;;;1.77;;
20379;SDS011;10349;48.666;8.948;2023-04-24T07:36:06;1.27;;;1.17;;
20379;SDS011;10349;48.666;8.948;2023-04-24T07:38:32;2.70;;;1.63;;
20379;SDS011;10349;48.666;8.948;2023-04-24T07:40:58;1.50;;;1.33;;
20379;SDS011;10349;48.666;8.948;2023-04-24T07:43:23;3.43;;;1.43;;
20379;SDS011;10349;48.666;8.948;2023-04-24T07:45:49;1.23;;;1.10;;
20379;SDS011;10349;48.666;8.948;2023-04-24T07:48:16;2.70;;;1.57;;
20379;SDS011;10349;48.666;8.948;2023-04-24T07:50:43;1.60;;;1.50;;
20379;SDS011;10349;48.666;8.948;2023-04-24T07:53:09;1.43;;;1.33;;
20379;SDS011;10349;48.666;8.948;2023-04-24T07:55:35;1.43;;;1.33;;
20379;SDS011;10349;48.666;8.948;2023-04-24T07:58:01;2.40;;;1.90;;
20379;SDS011;10349;48.666;8.948;2023-04-24T08:00:27;1.90;;;1.80;;
20379;SDS011;10349;48.666;8.948;2023-04-24T08:02:52;1.77;;;1.53;;
20379;SDS011;10349;48.666;8.948;2023-04-24T08:05:18;1.93;;;1.83;;
20379;SDS011;10349;48.666;8.948;2023-04-24T08:07:45;1.70;;;1.60;;
20379;SDS011;10349;48.666;8.948;2023-04-24T08:10:13;2.17;;;1.97;;
20379;SDS011;10349;48.666;8.948;2023-04-24T08:12:40;1.93;;;1.73;;
20379;SDS011;10349;48.666;8.948;2023-04-24T08:15:06;1.60;;;1.50;;
20379;SDS011;10349;48.666;8.948;2023-04-24T08:17:33;2.10;;;2.00;;
20379;SDS011;10349;48.666;8.948;2023-04-24T08:20:00;2.30;;;1.40;;
20379;SDS011;10349;48.666;8.948;2023-04-24T08:22:27;3.37;;;2.23;;
20379;SDS011;10349;48.666;8.948;2023-04-24T08:24:53;1.90;;;1.80;;
20379;SDS011;10349;48.666;8.948;2023-04-24T08:27:19;1.63;;;1.53;;
20379;SDS011;10349;48.666;8.948;2023-04-24T08:29:45;2.23;;;1.40;;
20379;SDS011;10349;48.666;8.948;2023-04-24T08:32:11;1.60;;;1.50;;
20379;SDS011;10349;48.666;8.948;2023-04-24T08:34:39;2.57;;;1.47;;
20379;SDS011;10349;48.666;8.948;2023-04-24T08:37:05;2.77;;;1.63;;
20379;SDS011;10349;48.666;8.948;2023-04-24T08:39:30;1.83;;;1.73;;
20379;SDS011;10349;48.666;8.948;2023-04-24T08:41:56;1.77;;;1.67;;
20379;SDS011;10349;48.666;8.948;2023-04-24T08:44:22;2.17;;;2.00;;
20379;SDS011;10349;48.666;8.948;2023-04-24T08:46:48;1.93;;;1.83;;
20379;SDS011;10349;48.666;8.948;2023-04-24T08:49:15;2.10;;;1.90;;
20379;SDS011;10349;48.666;8.948;2023-04-24T08:51:44;2.77;;;1.67;;
20379;SDS011;10349;48.666;8.948;2023-04-24T08:54:11;2.13;;;1.80;;
20379;SDS011;10349;48.666;8.948;2023-04-24T08:56:38;2.47;;;1.90;;
20379;SDS011;10349;48.666;8.948;2023-04-24T08:59:05;2.53;;;2.40;;
20379;SDS011;10349;48.666;8.948;2023-04-24T09:01:32;7.80;;;2.27;;
20379;SDS011;10349;48.666;8.948;2023-04-24T09:04:02;2.40;;;1.87;;
20379;SDS011;10349;48.666;8.948;2023-04-24T09:06:29;2.03;;;1.83;;
20379;SDS011;10349;48.666;8.948;2023-04-24T09:08:57;1.80;;;1.70;;
20379;SDS011;10349;48.666;8.948;2023-04-24T09:11:26;3.83;;;1.50;;
20379;SDS011;10349;48.666;8.948;2023-04-24T09:13:56;2.37;;;1.40;;
20379;SDS011;10349;48.666;8.948;2023-04-24T09:16:22;1.33;;;1.23;;
20379;SDS011;10349;48.666;8.948;2023-04-24T09:18:50;3.23;;;1.40;;
20379;SDS011;10349;48.666;8.948;2023-04-24T09:21:16;2.27;;;1.93;;
20379;SDS011;10349;48.666;8.948;2023-04-24T09:23:42;1.77;;;1.67;;
20379;SDS011;10349;48.666;8.948;2023-04-24T09:26:08;2.70;;;1.40;;
20379;SDS011;10349;48.666;8.948;2023-04-24T09:28:36;4.50;;;1.43;;
20379;SDS011;10349;48.666;8.948;2023-04-24T09:33:34;1.60;;;1.50;;
20379;SDS011;10349;48.666;8.948;2023-04-24T09:35:59;1.40;;;1.30;;
20379;SDS011;10349;48.666;8.948;2023-04-24T09:38:32;1.50;;;1.40;;
20379;SDS011;10349;48.666;8.948;2023-04-24T09:41:03;1.37;;;1.27;;
20379;SDS011;10349;48.666;8.948;2023-04-24T09:43:31;1.30;;;1.20;;
20379;SDS011;10349;48.666;8.948;2023-04-24T09:45:57;1.63;;;1.53;;
20379;SDS011;10349;48.666;8.948;2023-04-24T09:48:34;1.40;;;1.30;;
20379;SDS011;10349;48.666;8.948;2023-04-24T09:51:02;2.30;;;1.50;;
20379;SDS011;10349;48.666;8.948;2023-04-24T09:53:29;1.27;;;1.17;;
20379;SDS011;10349;48.666;8.948;2023-04-24T09:55:56;1.50;;;1.40;;
20379;SDS011;10349;48.666;8.948;2023-04-24T09:58:28;1.47;;;1.37;;
20379;SDS011;10349;48.666;8.948;2023-04-24T10:00:55;1.50;;;1.40;;
20379;SDS011;10349;48.666;8.948;2023-04-24T10:03:25;1.20;;;1.10;;
20379;SDS011;10349;48.666;8.948;2023-04-24T10:05:54;1.63;;;1.27;;
20379;SDS011;10349;48.666;8.948;2023-04-24T10:08:24;1.30;;;1.20;;
20379;SDS011;10349;48.666;8.948;2023-04-24T10:10:54;2.10;;;1.40;;
20379;SDS011;10349;48.666;8.948;2023-04-24T10:13:20;4.30;;;1.43;;
20379;SDS011;10349;48.666;8.948;2023-04-24T10:15:46;2.13;;;1.47;;
20379;SDS011;10349;48.666;8.948;2023-04-24T10:18:14;1.20;;;1.10;;
20379;SDS011;10349;48.666;8.948;2023-04-24T10:20:41;1.23;;;1.13;;
20379;SDS011;10349;48.666;8.948;2023-04-24T10:23:07;1.77;;;1.27;;
20379;SDS011;10349;48.666;8.948;2023-04-24T10:25:34;1.53;;;1.03;;
20379;SDS011;10349;48.666;8.948;2023-04-24T10:28:02;2.23;;;1.10;;
20379;SDS011;10349;48.666;8.948;2023-04-24T10:30:30;1.50;;;1.40;;
20379;SDS011;10349;48.666;8.948;2023-04-24T10:33:00;1.23;;;1.07;;
20379;SDS011;10349;48.666;8.948;2023-04-24T10:35:26;1.83;;;1.20;;
20379;SDS011;10349;48.666;8.948;2023-04-24T10:37:56;1.00;;;0.90;;
20379;SDS011;10349;48.666;8.948;2023-04-24T10:40:34;1.57;;;1.40;;
20379;SDS011;10349;48.666;8.948;2023-04-24T10:43:07;1.53;;;1.43;;
20379;SDS011;10349;48.666;8.948;2023-04-24T10:45:36;1.40;;;1.30;;
20379;SDS011;10349;48.666;8.948;2023-04-24T10:50:52;1.90;;;1.30;;
20379;SDS011;10349;48.666;8.948;2023-04-24T10:53:19;1.20;;;1.10;;
20379;SDS011;10349;48.666;8.948;2023-04-24T10:58:22;1.60;;;1.50;;
20379;SDS011;10349;48.666;8.948;2023-04-24T11:00:56;1.63;;;1.53;;
20379;SDS011;10349;48.666;8.948;2023-04-24T11:03:23;1.50;;;1.40;;
20379;SDS011;10349;48.666;8.948;2023-04-24T11:05:50;1.43;;;1.30;;
20379;SDS011;10349;48.666;8.948;2023-04-24T11:08:22;1.60;;;1.40;;
20379;SDS011;10349;48.666;8.948;2023-04-24T11:13:23;1.60;;;1.40;;
20379;SDS011;10349;48.666;8.948;2023-04-24T11:18:39;1.37;;;1.27;;
20379;SDS011;10349;48.666;8.948;2023-04-24T11:21:11;1.43;;;1.30;;
20379;SDS011;10349;48.666;8.948;2023-04-24T11:23:38;2.27;;;1.50;;
20379;SDS011;10349;48.666;8.948;2023-04-24T11:26:11;2.13;;;1.43;;
20379;SDS011;10349;48.666;8.948;2023-04-24T11:28:37;1.40;;;1.20;;
20379;SDS011;10349;48.666;8.948;2023-04-24T11:34:12;1.40;;;1.30;;
20379;SDS011;10349;48.666;8.948;2023-04-24T11:36:40;1.23;;;1.13;;
20379;SDS011;10349;48.666;8.948;2023-04-24T11:39:09;1.47;;;1.30;;
20379;SDS011;10349;48.666;8.948;2023-04-24T11:41:36;1.43;;;1.33;;
20379;SDS011;10349;48.666;8.948;2023-04-24T11:44:02;1.50;;;1.23;;
20379;SDS011;10349;48.666;8.948;2023-04-24T11:46:30;1.57;;;1.40;;
20379;SDS011;10349;48.666;8.948;2023-04-24T11:48:57;4.23;;;1.53;;
20379;SDS011;10349;48.666;8.948;2023-04-24T11:51:24;6.23;;;1.70;;
20379;SDS011;10349;48.666;8.948;2023-04-24T11:53:51;1.63;;;1.53;;
20379;SDS011;10349;48.666;8.948;2023-04-24T11:56:21;1.93;;;1.83;;
20379;SDS011;10349;48.666;8.948;2023-04-24T11:58:47;1.30;;;1.20;;
20379;SDS011;10349;48.666;8.948;2023-04-24T12:01:13;2.43;;;1.40;;
20379;SDS011;10349;48.666;8.948;2023-04-24T12:03:39;1.80;;;1.70;;
20379;SDS011;10349;48.666;8.948;2023-04-24T12:06:08;2.00;;;1.90;;
20379;SDS011;10349;48.666;8.948;2023-04-24T12:08:35;1.70;;;1.60;;
20379;SDS011;10349;48.666;8.948;2023-04-24T12:11:02;1.77;;;1.67;;
20379;SDS011;10349;48.666;8.948;2023-04-24T12:13:34;1.80;;;1.70;;
20379;SDS011;10349;48.666;8.948;2023-04-24T12:16:02;1.87;;;1.63;;
20379;SDS011;10349;48.666;8.948;2023-04-24T12:18:29;1.67;;;1.27;;
20379;SDS011;10349;48.666;8.948;2023-04-24T12:20:55;1.73;;;1.63;;
20379;SDS011;10349;48.666;8.948;2023-04-24T12:23:39;1.40;;;1.30;;
20379;SDS011;10349;48.666;8.948;2023-04-24T12:26:09;1.50;;;1.40;;
20379;SDS011;10349;48.666;8.948;2023-04-24T12:28:35;1.50;;;1.40;;
20379;SDS011;10349;48.666;8.948;2023-04-24T12:31:02;1.40;;;1.30;;
20379;SDS011;10349;48.666;8.948;2023-04-24T12:33:28;1.80;;;1.50;;
20379;SDS011;10349;48.666;8.948;2023-04-24T12:35:58;1.33;;;1.23;;
20379;SDS011;10349;48.666;8.948;2023-04-24T12:38:25;1.20;;;1.10;;
20379;SDS011;10349;48.666;8.948;2023-04-24T12:41:04;1.63;;;1.53;;
20379;SDS011;10349;48.666;8.948;2023-04-24T12:43:32;3.57;;;1.50;;
20379;SDS011;10349;48.666;8.948;2023-04-24T12:45:58;2.20;;;1.60;;
20379;SDS011;10349;48.666;8.948;2023-04-24T12:48:25;1.57;;;1.47;;
20379;SDS011;10349;48.666;8.948;2023-04-24T12:50:51;1.63;;;1.53;;
20379;SDS011;10349;48.666;8.948;2023-04-24T12:53:17;1.60;;;1.43;;
20379;SDS011;10349;48.666;8.948;2023-04-24T12:55:43;1.43;;;1.33;;
20379;SDS011;10349;48.666;8.948;2023-04-24T12:58:10;1.80;;;1.70;;
20379;SDS011;10349;48.666;8.948;2023-04-24T13:00:36;1.83;;;1.73;;
20379;SDS011;10349;48.666;8.948;2023-04-24T13:03:03;1.67;;;1.57;;
20379;SDS011;10349;48.666;8.948;2023-04-24T13:05:29;2.87;;;2.60;;
20379;SDS011;10349;48.666;8.948;2023-04-24T13:07:55;1.50;;;1.40;;
20379;SDS011;10349;48.666;8.948;2023-04-24T13:10:22;2.07;;;1.77;;
20379;SDS011;10349;48.666;8.948;2023-04-24T13:12:48;1.60;;;1.50;;
20379;SDS011;10349;48.666;8.948;2023-04-24T13:15:14;1.80;;;1.70;;
20379;SDS011;10349;48.666;8.948;2023-04-24T13:17:42;4.50;;;2.13;;
20379;SDS011;10349;48.666;8.948;2023-04-24T13:20:08;2.00;;;1.83;;
20379;SDS011;10349;48.666;8.948;2023-04-24T13:22:35;3.90;;;2.20;;
20379;SDS011;10349;48.666;8.948;2023-04-24T13:25:01;1.80;;;1.70;;
20379;SDS011;10349;48.666;8.948;2023-04-24T13:27:27;2.43;;;2.23;;
20379;SDS011;10349;48.666;8.948;2023-04-24T13:29:52;2.03;;;1.93;;
20379;SDS011;10349;48.666;8.948;2023-04-24T13:32:18;1.67;;;1.40;;
20379;SDS011;10349;48.666;8.948;2023-04-24T13:34:44;1.80;;;1.70;;
20379;SDS011;10349;48.666;8.948;2023-04-24T13:37:09;3.13;;;2.00;;
20379;SDS011;10349;48.666;8.948;2023-04-24T13:39:35;2.03;;;1.90;;
20379;SDS011;10349;48.666;8.948;2023-04-24T13:42:01;2.23;;;2.07;;
20379;SDS011;10349;48.666;8.948;2023-04-24T13:44:26;2.17;;;1.80;;
20379;SDS011;10349;48.666;8.948;2023-04-24T13:46:53;1.93;;;1.80;;
20379;SDS011;10349;48.666;8.948;2023-04-24T13:49:21;1.90;;;1.80;;
20379;SDS011;10349;48.666;8.948;2023-04-24T13:51:50;1.90;;;1.80;;
20379;SDS011;10349;48.666;8.948;2023-04-24T13:54:16;2.03;;;1.93;;
20379;SDS011;10349;48.666;8.948;2023-04-24T13:56:42;2.27;;;2.10;;
20379;SDS011;10349;48.666;8.948;2023-04-24T13:59:07;1.90;;;1.80;;
20379;SDS011;10349;48.666;8.948;2023-04-24T14:01:35;3.17;;;1.90;;
20379;SDS011;10349;48.666;8.948;2023-04-24T14:04:01;2.53;;;2.30;;
20379;SDS011;10349;48.666;8.948;2023-04-24T14:06:27;1.97;;;1.73;;
20379;SDS011;10349;48.666;8.948;2023-04-24T14:08:53;4.20;;;1.77;;
20379;SDS011;10349;48.666;8.948;2023-04-24T14:11:18;1.63;;;1.53;;
20379;SDS011;10349;48.666;8.948;2023-04-24T14:13:45;2.27;;;2.17;;
20379;SDS011;10349;48.666;8.948;2023-04-24T14:16:11;3.30;;;2.30;;
20379;SDS011;10349;48.666;8.948;2023-04-24T14:18:37;1.50;;;1.40;;
20379;SDS011;10349;48.666;8.948;2023-04-24T14:21:03;2.33;;;2.17;;
20379;SDS011;10349;48.666;8.948;2023-04-24T14:23:29;1.80;;;1.70;;
20379;SDS011;10349;48.666;8.948;2023-04-24T14:25:56;2.27;;;2.17;;
20379;SDS011;10349;48.666;8.948;2023-04-24T14:28:22;2.47;;;2.27;;
20379;SDS011;10349;48.666;8.948;2023-04-24T14:30:49;2.90;;;2.60;;
20379;SDS011;10349;48.666;8.948;2023-04-24T14:33:14;2.37;;;2.17;;
20379;SDS011;10349;48.666;8.948;2023-04-24T14:35:43;2.83;;;1.70;;
20379;SDS011;10349;48.666;8.948;2023-04-24T14:38:09;1.80;;;1.70;;
20379;SDS011;10349;48.666;8.948;2023-04-24T14:40:35;2.00;;;1.90;;
20379;SDS011;10349;48.666;8.948;2023-04-24T14:43:02;1.70;;;1.60;;
20379;SDS011;10349;48.666;8.948;2023-04-24T14:45:28;1.80;;;1.70;;
20379;SDS011;10349;48.666;8.948;2023-04-24T14:47:53;2.60;;;2.40;;
20379;SDS011;10349;48.666;8.948;2023-04-24T14:50:20;2.30;;;1.73;;
20379;SDS011;10349;48.666;8.948;2023-04-24T14:52:46;2.13;;;1.70;;
20379;SDS011;10349;48.666;8.948;2023-04-24T14:55:12;1.80;;;1.70;;
20379;SDS011;10349;48.666;8.948;2023-04-24T14:57:38;1.50;;;1.40;;
20379;SDS011;10349;48.666;8.948;2023-04-24T15:00:05;1.87;;;1.70;;
20379;SDS011;10349;48.666;8.948;2023-04-24T15:02:39;1.60;;;1.50;;
20379;SDS011;10349;48.666;8.948;2023-04-24T15:05:07;1.87;;;1.77;;
20379;SDS011;10349;48.666;8.948;2023-04-24T15:07:33;2.30;;;2.10;;